Monterey, CA (93940)

3:51 AM PST on January 19, 2017 (GMT -0800)
Oak Grove, Monterey CA | | Change Station
Active Advisory: Small Craft Advisory

Elev 60 ft 36.60 °N, 121.88 °W | Updated 0 second ago

Partly Cloudy
Partly Cloudy
52.6 °F
Feels Like 52.6 °F
N
5.6
Wind Variable Wind from SSW
Gusts 10.0 mph

Today
High -- | Low -- °F
--% Chance of Precip.
Yesterday
High -- | Low -- °F
Precip. -- in
Pressure 29.91 in
Visibility 10.0 miles
Clouds Few 2900 ft
Few 7000 ft
Dew Point 49 °F
Humidity 88%
Rainfall 0.00 in
Snow Depth Not available.
7:17 AM 5:19 PM
Waning Gibbous, 54% visible
METAR KMRY 191054Z AUTO 17003KT 10SM FEW029 FEW070 11/08 A2987 RMK AO2 SLP127 T01110083
Pressure 29.91 in
Visibility 10.0 miles
Clouds Few 2900 ft
Few 7000 ft
Dew Point 49 °F
Humidity 88%
Rainfall 0.00 in
Snow Depth Not available.
7:17 AM 5:19 PM
Waning Gibbous, 54% visible
METAR KMRY 191054Z AUTO 17003KT 10SM FEW029 FEW070 11/08 A2987 RMK AO2 SLP127 T01110083

Get Your Daily Forecast Email!

Thanks for signing up!

Be on the lookout for a verification email in your inbox.

You'll start receiving the daily forecast at 8 AM.

×

10-Day Weather Forecast

Almanac

Astronomy

Jan. 19, 2017 Rise Set
Actual Time
Civil Twilight
Nautical Twilight
Astronomical Twilight
Moon
Length of Visible Light
Length of Day
Tomorrow will be .
, % of the Moon is Illuminated

Today's Extremes

State Highs State Lows

Community

WunderPhotos

Upload Photos

1,962,540 photos uploaded!

WunderBlog® & News

Nearby

Air Quality

  Air Quality AQ Index Pollutant
Not available.

Snow Depth

Station Depth Elevation

Earthquake Activity

City Distance Mag. Time & Date
Minimum magnitude displayed is 2.5.

Coastal Water Temperatures

Place Temperature

Stations

Nearby Weather Stations

Station Location Temp. Windchill Dew Point Humidity Wind Precip. Elev Updated Type
                   

Watches & Warnings

Small Craft Advisory
Issued: 2:36 AM PST Jan. 19, 2017 – National Weather Service

... Small Craft Advisory in effect from 7 am to 9 PM PST Friday...
... Small Craft Advisory is cancelled...

The National Weather Service San Francisco has issued a Small
Craft Advisory... which is in effect from 7 am to 9 PM PST Friday.

* Winds and waves: see the coastal waters forecast (cwfmtr) or
our marine Page at http://weather.Gov/sanfrancisco/marine.Php
for more details.

Precautionary/preparedness actions...

A Small Craft Advisory means that wind speeds of 21 to 33 knots
are expected to produce hazardous wave conditions to small craft.
Inexperienced mariners... especially those operating smaller
vessels should avoid navigating in these conditions.